createdAt,value
2017-09-17T00:01:22.884Z,99.90
2017-09-17T00:03:51.044Z,99.90
2017-09-17T00:06:19.220Z,99.90
2017-09-17T00:08:47.328Z,99.90
2017-09-17T00:11:16.176Z,99.90
2017-09-17T00:13:44.283Z,99.90
2017-09-17T00:16:13.138Z,99.90
2017-09-17T00:18:41.211Z,99.90
2017-09-17T00:21:09.334Z,99.90
2017-09-17T00:23:37.408Z,99.90
2017-09-17T00:26:05.538Z,99.90
2017-09-17T00:28:33.624Z,99.90
2017-09-17T00:31:01.696Z,99.90
2017-09-17T00:33:29.775Z,99.90
2017-09-17T00:35:57.847Z,99.90
2017-09-17T00:38:25.931Z,99.90
2017-09-17T00:40:54.151Z,99.90
2017-09-17T00:43:22.244Z,99.90
2017-09-17T00:45:51.084Z,99.90
2017-09-17T00:48:19.164Z,99.90
2017-09-17T00:50:47.239Z,99.90
2017-09-17T00:53:15.334Z,99.90
2017-09-17T00:55:43.395Z,99.90
2017-09-17T00:58:11.484Z,99.90
2017-09-17T01:00:40.325Z,99.90
2017-09-17T01:03:08.496Z,99.90
2017-09-17T01:05:36.570Z,99.90
2017-09-17T01:08:04.656Z,99.90
2017-09-17T01:10:32.788Z,99.90
2017-09-17T01:13:00.924Z,99.90
2017-09-17T01:15:29.003Z,99.90
2017-09-17T01:17:57.095Z,99.90
2017-09-17T01:20:25.314Z,99.90
2017-09-17T01:22:53.400Z,99.90
2017-09-17T01:25:22.247Z,99.90
2017-09-17T01:27:50.331Z,99.90
2017-09-17T01:30:18.407Z,99.90
2017-09-17T01:32:46.492Z,99.90
2017-09-17T01:35:14.564Z,99.90
2017-09-17T01:37:42.643Z,99.90
2017-09-17T01:40:11.488Z,99.90
2017-09-17T01:42:39.673Z,99.90
2017-09-17T01:45:07.750Z,99.90
2017-09-17T01:47:35.945Z,99.90
2017-09-17T01:50:04.026Z,99.90
2017-09-17T01:52:32.865Z,99.90
2017-09-17T01:55:00.935Z,99.90
2017-09-17T01:57:29.019Z,99.90
2017-09-17T01:59:57.104Z,99.90
2017-09-17T02:02:25.178Z,99.90
2017-09-17T02:04:53.258Z,99.90
2017-09-17T02:07:21.352Z,99.90
2017-09-17T02:09:49.432Z,99.90
2017-09-17T02:12:17.540Z,99.90
2017-09-17T02:14:45.611Z,99.90
2017-09-17T02:17:13.691Z,99.90
2017-09-17T02:19:41.780Z,99.90
2017-09-17T02:22:10.633Z,99.90
2017-09-17T02:24:38.712Z,99.90
2017-09-17T02:27:06.903Z,99.90
2017-09-17T02:29:34.979Z,99.90
2017-09-17T02:32:03.122Z,99.90
2017-09-17T02:34:31.312Z,99.90
2017-09-17T02:36:59.395Z,99.90
2017-09-17T02:39:27.655Z,99.90
2017-09-17T02:41:55.731Z,99.90
2017-09-17T02:44:23.876Z,99.90
2017-09-17T02:46:52.068Z,99.90
2017-09-17T02:49:20.153Z,99.90
2017-09-17T02:51:48.216Z,99.90
2017-09-17T02:54:16.304Z,99.90
2017-09-17T02:56:44.394Z,99.90
2017-09-17T02:59:12.631Z,99.90
2017-09-17T03:01:40.760Z,99.90
2017-09-17T03:04:08.843Z,99.90
2017-09-17T03:06:36.920Z,99.90
2017-09-17T03:09:05.003Z,99.90
2017-09-17T03:11:33.079Z,99.90
2017-09-17T03:14:01.167Z,99.90
2017-09-17T03:16:30.016Z,99.90
2017-09-17T03:18:58.100Z,99.90
2017-09-17T03:21:26.173Z,99.90
2017-09-17T03:23:54.356Z,99.90
2017-09-17T03:26:22.432Z,99.90
2017-09-17T03:28:51.285Z,99.90
2017-09-17T03:31:19.350Z,99.90
2017-09-17T03:33:47.441Z,99.90
2017-09-17T03:36:15.527Z,99.90
2017-09-17T03:38:43.619Z,99.90
2017-09-17T03:41:11.688Z,99.90
2017-09-17T03:43:39.779Z,99.90
2017-09-17T03:46:07.855Z,99.90
2017-09-17T03:48:35.942Z,99.90
2017-09-17T03:51:04.084Z,99.90
2017-09-17T03:53:32.175Z,99.90
2017-09-17T03:56:00.256Z,99.90
2017-09-17T03:58:28.342Z,99.90
2017-09-17T04:00:56.417Z,99.90
2017-09-17T04:03:24.503Z,99.90
2017-09-17T04:05:53.359Z,99.90
2017-09-17T04:08:21.460Z,99.90
2017-09-17T04:10:49.543Z,99.90
2017-09-17T04:13:17.630Z,99.90
2017-09-17T04:15:45.735Z,99.90
2017-09-17T04:18:13.819Z,99.90
2017-09-17T04:20:41.946Z,99.90
2017-09-17T04:23:10.016Z,99.90
2017-09-17T04:25:38.095Z,99.90
2017-09-17T04:28:06.198Z,99.90
2017-09-17T04:30:34.287Z,99.90
2017-09-17T04:33:02.360Z,99.90
2017-09-17T04:35:30.633Z,99.90
2017-09-17T04:37:58.710Z,99.90
2017-09-17T04:40:26.779Z,99.90
2017-09-17T04:42:54.871Z,99.90
2017-09-17T04:45:22.951Z,99.90
2017-09-17T04:47:51.067Z,99.90
2017-09-17T04:50:19.202Z,99.90
2017-09-17T04:52:47.302Z,99.90
2017-09-17T04:55:15.383Z,99.90
2017-09-17T04:57:43.487Z,99.90
2017-09-17T05:00:11.570Z,99.90
2017-09-17T05:02:39.811Z,99.90
2017-09-17T05:05:07.909Z,99.90
2017-09-17T05:07:36.781Z,99.90
2017-09-17T05:10:05.648Z,99.90
2017-09-17T05:12:33.732Z,99.90
2017-09-17T05:15:01.827Z,99.90
2017-09-17T05:17:29.919Z,99.90
2017-09-17T05:19:58.019Z,99.90
2017-09-17T05:22:26.113Z,99.90
2017-09-17T05:24:54.379Z,99.90
2017-09-17T05:27:22.454Z,99.90
2017-09-17T05:29:50.549Z,99.90
2017-09-17T05:32:19.404Z,99.90
2017-09-17T05:34:47.501Z,99.90
2017-09-17T05:37:16.351Z,99.90
2017-09-17T05:39:44.503Z,99.90
2017-09-17T05:42:12.612Z,99.90
2017-09-17T05:44:40.707Z,99.90
2017-09-17T05:47:08.849Z,99.90
2017-09-17T05:49:36.934Z,99.90
2017-09-17T05:52:05.015Z,99.90
2017-09-17T05:54:33.868Z,99.90
2017-09-17T05:57:02.058Z,99.90
2017-09-17T05:59:30.143Z,99.90
2017-09-17T06:01:58.403Z,99.90
2017-09-17T06:04:26.491Z,99.90
2017-09-17T06:06:54.752Z,99.90
2017-09-17T06:09:22.840Z,99.90
2017-09-17T06:11:50.969Z,99.90
2017-09-17T06:14:19.175Z,99.90
2017-09-17T06:16:48.139Z,99.90
2017-09-17T06:19:16.334Z,99.90
2017-09-17T06:21:44.416Z,99.90
2017-09-17T06:24:13.273Z,99.90
2017-09-17T06:26:41.366Z,99.90
2017-09-17T06:29:10.237Z,99.90
2017-09-17T06:31:38.332Z,99.90
2017-09-17T06:34:07.199Z,99.90
2017-09-17T06:36:35.278Z,99.90
2017-09-17T06:39:04.875Z,99.90
2017-09-17T06:41:32.968Z,99.90
2017-09-17T06:44:01.935Z,99.90
2017-09-17T06:46:30.024Z,99.90
2017-09-17T06:48:58.111Z,99.90
2017-09-17T06:51:26.245Z,99.90
2017-09-17T06:53:54.437Z,99.90
2017-09-17T06:56:23.286Z,99.90
2017-09-17T06:58:51.397Z,99.90
2017-09-17T07:01:20.247Z,99.90
2017-09-17T07:03:48.338Z,99.90
2017-09-17T07:06:16.424Z,99.90
2017-09-17T07:08:44.531Z,99.90
2017-09-17T07:11:12.615Z,99.90
2017-09-17T07:13:40.707Z,99.90
2017-09-17T07:16:08.804Z,99.90
2017-09-17T07:18:36.903Z,99.90
2017-09-17T07:21:04.997Z,99.90
2017-09-17T07:23:33.192Z,99.90
2017-09-17T07:26:01.295Z,99.90
2017-09-17T07:28:29.476Z,99.90
2017-09-17T07:30:57.551Z,99.90
2017-09-17T07:33:25.624Z,99.90
2017-09-17T07:35:53.714Z,99.90
2017-09-17T07:38:21.825Z,99.90
2017-09-17T07:40:49.915Z,99.90
2017-09-17T07:43:18.047Z,99.90
2017-09-17T07:45:46.151Z,99.90
2017-09-17T07:48:14.318Z,99.90
2017-09-17T07:50:43.154Z,99.90
2017-09-17T07:53:11.399Z,99.90
2017-09-17T07:55:40.242Z,99.90
2017-09-17T07:58:08.552Z,99.90
2017-09-17T08:00:36.640Z,99.90
2017-09-17T08:03:05.490Z,99.90
2017-09-17T08:05:33.560Z,99.90
2017-09-17T08:08:01.986Z,99.90
2017-09-17T08:10:30.119Z,99.90
2017-09-17T08:12:58.272Z,99.90
2017-09-17T08:15:26.353Z,99.90
2017-09-17T08:17:54.455Z,99.90
2017-09-17T08:20:22.610Z,99.90
2017-09-17T08:22:50.698Z,99.90
2017-09-17T08:25:18.775Z,99.90
2017-09-17T08:27:47.035Z,99.90
2017-09-17T08:30:15.187Z,99.90
2017-09-17T08:32:43.263Z,99.90
2017-09-17T08:35:11.352Z,99.90
2017-09-17T08:37:40.198Z,99.90
2017-09-17T08:40:08.288Z,99.90
2017-09-17T08:42:36.380Z,99.90
2017-09-17T08:45:04.460Z,99.90
2017-09-17T08:47:33.311Z,99.90
2017-09-17T08:50:01.426Z,99.90
2017-09-17T08:52:30.276Z,99.90
2017-09-17T08:54:58.352Z,99.90
2017-09-17T08:57:26.423Z,99.90
2017-09-17T08:59:54.688Z,99.90
2017-09-17T09:02:22.876Z,99.90
2017-09-17T09:04:50.960Z,99.90
2017-09-17T09:07:19.894Z,99.90
2017-09-17T09:09:47.993Z,99.90
2017-09-17T09:12:16.076Z,99.90
2017-09-17T09:14:44.151Z,99.90
2017-09-17T09:17:12.531Z,99.90
2017-09-17T09:19:40.626Z,99.90
2017-09-17T09:22:09.481Z,99.90
2017-09-17T09:24:37.557Z,99.90
2017-09-17T09:27:05.642Z,99.90
2017-09-17T09:29:34.482Z,99.90
2017-09-17T09:32:02.568Z,99.90
2017-09-17T09:34:30.635Z,99.90
2017-09-17T09:36:58.725Z,99.90
2017-09-17T09:39:26.803Z,99.90
2017-09-17T09:41:54.906Z,99.90
2017-09-17T09:44:23.012Z,99.90
2017-09-17T09:46:51.096Z,99.90
2017-09-17T09:49:19.187Z,99.90
2017-09-17T09:51:48.037Z,99.90
2017-09-17T09:54:16.123Z,99.90
2017-09-17T09:56:44.309Z,99.90
2017-09-17T09:59:13.164Z,99.90
2017-09-17T10:01:41.341Z,99.90
2017-09-17T10:04:09.439Z,99.90
2017-09-17T10:06:37.512Z,99.90
2017-09-17T10:09:05.592Z,99.90
2017-09-17T10:11:34.539Z,99.90
2017-09-17T10:14:02.634Z,99.90
2017-09-17T10:16:30.713Z,99.90
2017-09-17T10:18:58.988Z,99.90
2017-09-17T10:21:27.088Z,99.90
2017-09-17T10:23:55.172Z,99.90
2017-09-17T10:26:23.309Z,99.90
2017-09-17T10:28:51.376Z,99.90
2017-09-17T10:31:19.470Z,99.90
2017-09-17T10:33:47.549Z,99.90
2017-09-17T10:36:15.631Z,99.90
2017-09-17T10:38:43.720Z,99.90
2017-09-17T10:41:11.807Z,99.90
2017-09-17T10:43:39.912Z,99.90
2017-09-17T10:46:07.995Z,99.90
2017-09-17T10:48:36.075Z,99.90
2017-09-17T10:51:04.260Z,99.90
2017-09-17T10:53:32.351Z,99.90
2017-09-17T10:56:00.451Z,99.90
2017-09-17T10:58:29.328Z,99.90
2017-09-17T11:00:57.407Z,99.90
2017-09-17T11:03:25.527Z,99.90
2017-09-17T11:05:53.616Z,99.90
2017-09-17T11:08:21.708Z,99.90
2017-09-17T11:10:49.795Z,99.90
2017-09-17T11:13:18.695Z,99.90
2017-09-17T11:15:47.551Z,99.90
2017-09-17T11:18:15.641Z,99.90
2017-09-17T11:20:43.748Z,99.90
2017-09-17T11:23:11.841Z,92.30
2017-09-17T11:25:40.016Z,94.70
2017-09-17T11:28:08.103Z,93.20
2017-09-17T11:30:36.177Z,99.90
2017-09-17T11:33:04.354Z,99.90
2017-09-17T11:35:32.430Z,99.90
2017-09-17T11:38:01.425Z,99.90
2017-09-17T11:40:29.505Z,99.90
2017-09-17T11:42:58.362Z,99.90
2017-09-17T11:45:26.464Z,99.90
2017-09-17T11:47:55.304Z,99.90
2017-09-17T11:50:23.392Z,99.90
2017-09-17T11:52:51.478Z,99.90
2017-09-17T11:55:19.550Z,98.40
2017-09-17T11:57:47.619Z,98.40
2017-09-17T12:00:15.714Z,95.70
2017-09-17T12:02:44.556Z,92.20
2017-09-17T12:05:12.636Z,92.30
2017-09-17T12:07:40.721Z,97.40
2017-09-17T12:10:08.887Z,99.90
2017-09-17T12:12:37.043Z,99.90
2017-09-17T12:15:05.123Z,99.90
2017-09-17T12:17:33.199Z,99.90
2017-09-17T12:20:01.275Z,99.90
2017-09-17T12:22:29.351Z,99.90
2017-09-17T12:24:57.427Z,99.90
2017-09-17T12:27:26.271Z,99.90
2017-09-17T12:29:54.346Z,99.90
2017-09-17T12:32:22.443Z,99.90
2017-09-17T12:34:50.517Z,99.90
2017-09-17T12:37:18.588Z,99.90
2017-09-17T12:39:46.679Z,99.90
2017-09-17T12:42:14.755Z,99.90
2017-09-17T12:44:42.839Z,99.90
2017-09-17T12:47:10.911Z,99.90
2017-09-17T12:49:38.995Z,99.90
2017-09-17T12:52:07.071Z,99.90
2017-09-17T12:54:35.251Z,99.90
2017-09-17T12:57:03.322Z,99.90
2017-09-17T12:59:31.403Z,99.90
2017-09-17T13:01:59.479Z,99.90
2017-09-17T13:04:27.572Z,99.90
2017-09-17T13:06:55.694Z,97.00
2017-09-17T13:09:23.796Z,93.70
2017-09-17T13:11:51.863Z,95.10
2017-09-17T13:14:20.106Z,97.90
2017-09-17T13:16:48.184Z,99.80
2017-09-17T13:19:16.307Z,99.90
2017-09-17T13:21:45.167Z,99.50
2017-09-17T13:24:13.250Z,99.40
2017-09-17T13:26:41.328Z,99.90
2017-09-17T13:29:10.183Z,98.30
2017-09-17T13:31:38.267Z,98.30
2017-09-17T13:34:06.343Z,99.20
2017-09-17T13:36:34.421Z,99.90
2017-09-17T13:39:03.277Z,99.90
2017-09-17T13:41:31.358Z,99.90
2017-09-17T13:43:59.458Z,99.90
2017-09-17T13:46:27.529Z,99.90
2017-09-17T13:48:56.379Z,99.90
2017-09-17T13:51:24.458Z,99.90
2017-09-17T13:53:52.544Z,99.90
2017-09-17T13:56:20.632Z,99.90
2017-09-17T13:58:49.491Z,99.90
2017-09-17T14:01:23.458Z,99.90
2017-09-17T14:04:02.621Z,99.90
2017-09-17T14:06:32.802Z,99.90
2017-09-17T14:09:04.233Z,99.90
2017-09-17T14:11:32.681Z,99.90
2017-09-17T14:14:01.093Z,99.90
2017-09-17T14:16:30.149Z,99.90
2017-09-17T14:18:58.329Z,99.90
2017-09-17T14:21:26.395Z,99.90
2017-09-17T14:23:54.571Z,99.90
2017-09-17T14:26:23.067Z,99.90
2017-09-17T14:28:51.147Z,99.90
2017-09-17T14:31:19.268Z,99.90
2017-09-17T14:33:47.780Z,99.90
2017-09-17T14:36:16.028Z,99.90
2017-09-17T14:38:44.116Z,99.90
2017-09-17T14:41:12.519Z,99.90
2017-09-17T14:43:40.596Z,99.90
2017-09-17T14:46:08.683Z,99.90
2017-09-17T14:48:36.756Z,99.90
2017-09-17T14:51:04.846Z,99.90
2017-09-17T14:53:32.912Z,99.90
2017-09-17T14:56:01.005Z,99.90
2017-09-17T14:58:29.075Z,99.90
2017-09-17T15:00:57.159Z,99.90
2017-09-17T15:03:25.249Z,99.90
2017-09-17T15:05:54.220Z,99.90
2017-09-17T15:08:22.300Z,99.90
2017-09-17T15:10:51.181Z,99.90
2017-09-17T15:13:19.259Z,99.90
2017-09-17T15:15:48.105Z,99.90
2017-09-17T15:18:16.202Z,99.90
2017-09-17T15:20:44.273Z,99.90
2017-09-17T15:23:12.340Z,99.90
2017-09-17T15:25:40.459Z,99.90
2017-09-17T15:28:08.527Z,99.90
2017-09-17T15:30:36.620Z,99.90
2017-09-17T15:33:04.692Z,99.90
2017-09-17T15:35:32.788Z,99.90
2017-09-17T15:38:00.863Z,99.90
2017-09-17T15:40:28.984Z,99.90
2017-09-17T15:42:57.175Z,99.90
2017-09-17T15:45:25.275Z,99.90
2017-09-17T15:47:53.351Z,99.90
2017-09-17T15:50:21.525Z,99.90
2017-09-17T15:52:49.600Z,99.90
2017-09-17T15:55:17.694Z,99.90
2017-09-17T15:57:45.771Z,99.90
2017-09-17T16:00:14.021Z,99.90
2017-09-17T16:02:42.860Z,99.90
2017-09-17T16:05:10.934Z,99.90
2017-09-17T16:07:39.056Z,99.90
2017-09-17T16:10:07.194Z,99.90
2017-09-17T16:12:35.281Z,99.90
2017-09-17T16:15:03.360Z,99.90
2017-09-17T16:17:31.536Z,99.90
2017-09-17T16:20:00.385Z,99.90
2017-09-17T16:22:28.477Z,99.90
2017-09-17T16:24:56.621Z,99.90
2017-09-17T16:27:24.704Z,99.90
2017-09-17T16:29:52.834Z,99.90
2017-09-17T16:32:20.931Z,99.90
2017-09-17T16:34:49.239Z,99.90
2017-09-17T16:37:17.391Z,99.90
2017-09-17T16:39:45.581Z,99.90
2017-09-17T16:42:13.661Z,99.90
2017-09-17T16:44:41.739Z,99.90
2017-09-17T16:47:10.588Z,99.90
2017-09-17T16:49:38.672Z,99.90
2017-09-17T16:52:06.748Z,99.90
2017-09-17T16:54:34.844Z,99.90
2017-09-17T16:57:02.911Z,99.90
2017-09-17T16:59:31.010Z,99.90
2017-09-17T17:01:59.113Z,99.90
2017-09-17T17:04:27.211Z,99.90
2017-09-17T17:06:55.284Z,99.90
2017-09-17T17:09:23.364Z,99.90
2017-09-17T17:11:52.227Z,99.90
2017-09-17T17:14:20.399Z,99.90
2017-09-17T17:16:48.709Z,99.90
2017-09-17T17:19:18.015Z,99.90
2017-09-17T17:21:46.170Z,99.90
2017-09-17T17:24:15.025Z,99.90
2017-09-17T17:26:43.115Z,99.90
2017-09-17T17:29:11.204Z,99.90
2017-09-17T17:31:40.064Z,99.90
2017-09-17T17:34:08.240Z,99.90
2017-09-17T17:36:36.320Z,99.90
2017-09-17T17:39:05.164Z,99.90
2017-09-17T17:41:33.275Z,99.90
2017-09-17T17:44:01.350Z,99.90
2017-09-17T17:46:30.196Z,99.90
2017-09-17T17:48:58.286Z,99.90
2017-09-17T17:51:26.361Z,99.90
2017-09-17T17:53:54.443Z,99.90
2017-09-17T17:56:23.304Z,99.90
2017-09-17T17:58:51.403Z,99.90
2017-09-17T18:01:19.558Z,99.90
2017-09-17T18:03:47.659Z,99.90
2017-09-17T18:06:16.508Z,99.90
2017-09-17T18:08:44.591Z,99.90
2017-09-17T18:11:12.747Z,99.90
2017-09-17T18:13:40.895Z,99.90
2017-09-17T18:16:08.979Z,99.90
2017-09-17T18:18:37.084Z,99.90
2017-09-17T18:21:05.175Z,99.90
2017-09-17T18:23:34.033Z,99.90
2017-09-17T18:26:02.121Z,99.90
2017-09-17T18:28:30.205Z,99.90
2017-09-17T18:30:59.112Z,99.90
2017-09-17T18:33:27.183Z,99.90
2017-09-17T18:35:55.270Z,99.90
2017-09-17T18:38:23.337Z,99.90
2017-09-17T18:40:51.435Z,99.90
2017-09-17T18:43:19.596Z,99.90
2017-09-17T18:45:47.875Z,99.90
2017-09-17T18:48:16.191Z,99.90
2017-09-17T18:50:50.808Z,99.90
2017-09-17T18:53:19.208Z,99.90
2017-09-17T18:55:47.664Z,99.90
2017-09-17T18:58:16.827Z,99.90
2017-09-17T19:00:45.116Z,99.90
2017-09-17T19:03:13.369Z,99.90
2017-09-17T19:05:41.645Z,99.90
2017-09-17T19:08:10.102Z,99.90
2017-09-17T19:10:38.348Z,99.90
2017-09-17T19:13:06.735Z,99.90
2017-09-17T19:15:35.866Z,99.90
2017-09-17T19:18:04.249Z,99.90
2017-09-17T19:20:32.383Z,99.90
2017-09-17T19:23:00.555Z,99.90
2017-09-17T19:25:28.714Z,99.90
2017-09-17T19:27:56.888Z,99.90
2017-09-17T19:30:24.989Z,99.90
2017-09-17T19:32:53.112Z,99.90
2017-09-17T19:35:21.967Z,99.90
2017-09-17T19:37:50.092Z,99.90
2017-09-17T19:40:19.041Z,99.90
2017-09-17T19:42:47.184Z,99.90
2017-09-17T19:45:15.272Z,99.90
2017-09-17T19:47:43.353Z,99.90
2017-09-17T19:50:11.440Z,99.90
2017-09-17T19:52:40.601Z,99.90
2017-09-17T19:55:08.740Z,99.90
2017-09-17T19:57:36.980Z,99.90
2017-09-17T20:00:05.068Z,99.90
2017-09-17T20:02:33.227Z,99.90
2017-09-17T20:05:01.324Z,99.90
2017-09-17T20:07:30.180Z,99.90
2017-09-17T20:09:58.308Z,99.90
2017-09-17T20:12:26.419Z,99.90
2017-09-17T20:14:54.584Z,99.90
2017-09-17T20:17:22.671Z,99.90
2017-09-17T20:19:50.835Z,99.90
2017-09-17T20:22:20.423Z,99.90
2017-09-17T20:24:48.504Z,99.90
2017-09-17T20:27:16.579Z,99.90
2017-09-17T20:29:44.763Z,99.90
2017-09-17T20:32:13.660Z,99.90
2017-09-17T20:34:42.095Z,99.90
2017-09-17T20:37:10.204Z,99.90
2017-09-17T20:39:38.305Z,99.90
2017-09-17T20:42:06.385Z,99.90
2017-09-17T20:44:34.472Z,99.90
2017-09-17T20:47:02.559Z,99.90
2017-09-17T20:49:30.708Z,99.90
2017-09-17T20:51:58.784Z,99.90
2017-09-17T20:54:27.068Z,99.90
2017-09-17T20:56:55.151Z,99.90
2017-09-17T20:59:23.329Z,99.90
2017-09-17T21:01:51.411Z,99.90
2017-09-17T21:04:19.487Z,99.90
2017-09-17T21:06:48.327Z,99.90
2017-09-17T21:09:16.423Z,99.90
2017-09-17T21:11:44.506Z,99.90
2017-09-17T21:14:12.702Z,99.90
2017-09-17T21:16:40.827Z,99.90
2017-09-17T21:19:08.962Z,99.90
2017-09-17T21:21:37.035Z,99.90
2017-09-17T21:24:05.179Z,99.90
2017-09-17T21:26:33.426Z,99.90
2017-09-17T21:29:01.520Z,99.90
2017-09-17T21:31:30.367Z,99.90
2017-09-17T21:33:58.452Z,99.90
2017-09-17T21:36:26.532Z,99.90
2017-09-17T21:38:54.612Z,99.90
2017-09-17T21:41:22.700Z,99.90
2017-09-17T21:43:50.779Z,99.90
2017-09-17T21:46:18.878Z,99.90
2017-09-17T21:48:46.971Z,99.90
2017-09-17T21:51:15.151Z,99.90
2017-09-17T21:53:43.422Z,99.90
2017-09-17T21:56:11.507Z,99.90
2017-09-17T21:58:41.483Z,99.90
2017-09-17T22:01:09.534Z,99.90
2017-09-17T22:03:37.613Z,99.90
2017-09-17T22:06:05.723Z,99.90
2017-09-17T22:08:33.774Z,99.90
2017-09-17T22:11:01.849Z,99.90
2017-09-17T22:13:29.915Z,99.90
2017-09-17T22:15:58.104Z,99.90
2017-09-17T22:18:26.191Z,99.90
2017-09-17T22:20:54.446Z,99.90
2017-09-17T22:23:22.599Z,99.90
2017-09-17T22:25:50.679Z,99.90
2017-09-17T22:28:18.864Z,99.90
2017-09-17T22:30:46.950Z,99.90
2017-09-17T22:33:15.792Z,99.90
2017-09-17T22:35:43.872Z,99.90
2017-09-17T22:38:11.954Z,99.90
2017-09-17T22:40:40.041Z,99.90
2017-09-17T22:43:08.121Z,99.90
2017-09-17T22:45:36.202Z,99.90
2017-09-17T22:48:05.040Z,99.90
2017-09-17T22:50:33.138Z,99.90
2017-09-17T22:53:01.223Z,99.90
2017-09-17T22:55:30.072Z,99.90
2017-09-17T22:57:58.170Z,99.90
2017-09-17T23:00:26.256Z,99.90
2017-09-17T23:02:54.341Z,99.90
2017-09-17T23:05:22.420Z,99.90
2017-09-17T23:07:50.516Z,99.90
2017-09-17T23:10:18.607Z,99.90
2017-09-17T23:12:46.783Z,99.90
2017-09-17T23:15:14.868Z,99.90
2017-09-17T23:17:43.008Z,99.90
2017-09-17T23:20:11.110Z,99.90
2017-09-17T23:22:39.270Z,99.90
2017-09-17T23:25:07.420Z,99.90
2017-09-17T23:27:35.492Z,99.90
2017-09-17T23:30:03.636Z,99.90
2017-09-17T23:32:32.037Z,99.90
2017-09-17T23:35:00.106Z,99.90
2017-09-17T23:37:28.302Z,99.90
2017-09-17T23:39:56.395Z,99.90
2017-09-17T23:42:25.234Z,99.90
2017-09-17T23:44:53.324Z,99.90
2017-09-17T23:47:21.401Z,99.90
2017-09-17T23:49:49.491Z,99.90
2017-09-17T23:52:18.331Z,99.90
2017-09-17T23:54:47.431Z,99.90
2017-09-17T23:57:15.532Z,99.90
2017-09-17T23:59:43.619Z,99.90
